createdAt,value
2023-08-03T00:00:34.714Z,15.02
2023-08-03T00:01:34.781Z,15.02
2023-08-03T00:02:34.820Z,15.02
2023-08-03T00:03:34.733Z,14.96
2023-08-03T00:04:34.720Z,14.92
2023-08-03T00:05:34.663Z,15.00
2023-08-03T00:06:34.764Z,14.94
2023-08-03T00:07:34.628Z,14.96
2023-08-03T00:08:34.641Z,14.94
2023-08-03T00:09:34.625Z,14.94
2023-08-03T00:10:34.597Z,14.97
2023-08-03T00:11:34.560Z,14.97
2023-08-03T00:12:35.556Z,14.99
2023-08-03T00:13:34.565Z,15.02
2023-08-03T00:14:34.531Z,14.92
2023-08-03T00:15:34.561Z,14.96
2023-08-03T00:16:34.531Z,15.00
2023-08-03T00:17:34.534Z,14.97
2023-08-03T00:18:34.483Z,14.94
2023-08-03T00:19:34.486Z,14.97
2023-08-03T00:20:34.483Z,15.11
2023-08-03T00:21:34.464Z,15.04
2023-08-03T00:22:34.499Z,15.04
2023-08-03T00:23:34.433Z,14.93
2023-08-03T00:24:34.406Z,14.94
2023-08-03T00:25:34.407Z,14.96
2023-08-03T00:26:34.408Z,15.04
2023-08-03T00:27:34.410Z,14.94
2023-08-03T00:28:34.390Z,14.99
2023-08-03T00:29:34.348Z,14.99
2023-08-03T00:30:34.345Z,14.99
2023-08-03T00:31:34.427Z,14.94
2023-08-03T00:32:34.328Z,15.04
2023-08-03T00:33:35.335Z,14.99
2023-08-03T00:34:34.281Z,14.86
2023-08-03T00:35:34.293Z,14.90
2023-08-03T00:36:34.264Z,14.97
2023-08-03T00:37:34.262Z,14.94
2023-08-03T00:38:34.266Z,14.93
2023-08-03T00:39:34.296Z,15.04
2023-08-03T00:40:34.245Z,14.96
2023-08-03T00:41:34.228Z,14.93
2023-08-03T00:42:34.289Z,15.00
2023-08-03T00:43:34.219Z,14.97
2023-08-03T00:44:34.299Z,15.08
2023-08-03T00:45:34.277Z,15.05
2023-08-03T00:46:34.294Z,15.11
2023-08-03T00:47:34.152Z,15.17
2023-08-03T00:48:34.147Z,15.12
2023-08-03T00:49:34.125Z,15.15
2023-08-03T00:50:34.127Z,15.12
2023-08-03T00:51:34.096Z,15.29
2023-08-03T00:52:34.163Z,15.35
2023-08-03T00:53:34.085Z,15.35
2023-08-03T00:54:34.043Z,15.32
2023-08-03T00:55:34.082Z,15.29
2023-08-03T00:56:34.063Z,15.44
2023-08-03T00:57:34.024Z,15.32
2023-08-03T00:58:34.008Z,15.44
2023-08-03T00:59:34.010Z,15.47
2023-08-03T01:00:34.023Z,15.43
2023-08-03T01:01:33.969Z,15.37
2023-08-03T01:02:34.146Z,15.35
2023-08-03T01:03:33.953Z,15.44
2023-08-03T01:04:33.929Z,15.44
2023-08-03T01:05:33.946Z,15.51
2023-08-03T01:06:33.959Z,15.54
2023-08-03T01:07:33.906Z,15.54
2023-08-03T01:08:33.921Z,15.60
2023-08-03T01:09:33.871Z,15.48
2023-08-03T01:10:33.952Z,15.59
2023-08-03T01:11:33.852Z,15.54
2023-08-03T01:12:33.847Z,15.41
2023-08-03T01:13:33.829Z,15.50
2023-08-03T01:14:33.819Z,15.45
2023-08-03T01:15:33.838Z,15.48
2023-08-03T01:16:33.803Z,15.44
2023-08-03T01:17:33.841Z,15.43
2023-08-03T01:18:33.782Z,15.44
2023-08-03T01:19:33.762Z,15.39
2023-08-03T01:20:33.750Z,15.41
2023-08-03T01:21:33.740Z,15.43
2023-08-03T01:22:33.720Z,15.36
2023-08-03T01:23:33.716Z,15.39
2023-08-03T01:24:33.709Z,15.45
2023-08-03T01:25:33.722Z,15.43
2023-08-03T01:26:33.687Z,15.36
2023-08-03T01:27:33.661Z,15.36
2023-08-03T01:28:33.671Z,15.39
2023-08-03T01:29:33.630Z,15.39
2023-08-03T01:30:33.730Z,15.29
2023-08-03T01:31:33.660Z,15.37
2023-08-03T01:32:33.650Z,15.35
2023-08-03T01:33:33.627Z,15.44
2023-08-03T01:34:33.581Z,15.50
2023-08-03T01:35:33.599Z,15.44
2023-08-03T01:36:33.581Z,15.47
2023-08-03T01:37:33.550Z,15.50
2023-08-03T01:38:33.544Z,15.54
2023-08-03T01:39:33.543Z,15.51
2023-08-03T01:40:33.516Z,15.44
2023-08-03T01:41:33.515Z,15.44
2023-08-03T01:42:33.502Z,15.51
2023-08-03T01:43:33.491Z,15.48
2023-08-03T01:44:33.454Z,15.62
2023-08-03T01:45:33.449Z,15.70
2023-08-03T01:46:33.481Z,15.73
2023-08-03T01:48:05.338Z,15.88
2023-08-03T01:48:34.063Z,15.72
2023-08-03T01:49:33.445Z,15.90
2023-08-03T01:50:33.401Z,15.81
2023-08-03T01:51:33.428Z,15.78
2023-08-03T01:52:33.404Z,15.75
2023-08-03T01:53:33.385Z,15.85
2023-08-03T01:54:33.396Z,15.78
2023-08-03T01:55:33.378Z,15.69
2023-08-03T01:56:33.337Z,15.66
2023-08-03T01:57:33.325Z,15.69
2023-08-03T01:58:33.313Z,15.57
2023-08-03T01:59:33.320Z,15.70
2023-08-03T02:00:33.296Z,15.62
2023-08-03T02:01:33.309Z,15.65
2023-08-03T02:02:33.276Z,15.63
2023-08-03T02:03:33.238Z,15.67
2023-08-03T02:04:33.274Z,15.54
2023-08-03T02:05:33.253Z,15.66
2023-08-03T02:06:33.238Z,15.62
2023-08-03T02:07:33.193Z,15.66
2023-08-03T02:08:33.180Z,15.69
2023-08-03T02:09:33.203Z,15.67
2023-08-03T02:10:33.159Z,15.67
2023-08-03T02:11:33.158Z,15.75
2023-08-03T02:12:33.158Z,15.70
2023-08-03T02:13:33.140Z,15.69
2023-08-03T02:14:33.141Z,15.70
2023-08-03T02:15:33.141Z,15.70
2023-08-03T02:16:33.146Z,15.59
2023-08-03T02:17:33.071Z,15.48
2023-08-03T02:18:33.105Z,15.59
2023-08-03T02:19:33.069Z,15.65
2023-08-03T02:20:33.058Z,15.50
2023-08-03T02:21:33.072Z,15.47
2023-08-03T02:22:33.008Z,15.41
2023-08-03T02:23:33.040Z,15.41
2023-08-03T02:24:33.003Z,15.45
2023-08-03T02:25:32.990Z,15.37
2023-08-03T02:26:33.031Z,15.44
2023-08-03T02:27:32.950Z,15.37
2023-08-03T02:28:32.976Z,15.36
2023-08-03T02:29:32.957Z,15.41
2023-08-03T02:30:32.928Z,15.43
2023-08-03T02:31:32.950Z,15.47
2023-08-03T02:32:32.936Z,15.45
2023-08-03T02:33:32.951Z,15.55
2023-08-03T02:34:32.870Z,15.54
2023-08-03T02:35:32.896Z,15.48
2023-08-03T02:36:32.907Z,15.60
2023-08-03T02:37:32.844Z,15.45
2023-08-03T02:38:32.847Z,15.55
2023-08-03T02:39:32.848Z,15.51
2023-08-03T02:40:32.835Z,15.44
2023-08-03T02:41:32.865Z,15.47
2023-08-03T02:42:32.804Z,15.50
2023-08-03T02:43:32.758Z,15.43
2023-08-03T02:44:32.785Z,15.41
2023-08-03T02:45:32.772Z,15.48
2023-08-03T02:46:32.761Z,15.41
2023-08-03T02:47:32.784Z,15.50
2023-08-03T02:48:32.710Z,15.48
2023-08-03T02:49:32.773Z,15.45
2023-08-03T02:50:32.696Z,15.47
2023-08-03T02:51:32.739Z,15.48
2023-08-03T02:52:32.674Z,15.44
2023-08-03T02:53:32.698Z,15.39
2023-08-03T02:54:32.664Z,15.35
2023-08-03T02:55:32.654Z,15.37
2023-08-03T02:56:32.629Z,15.41
2023-08-03T02:57:32.677Z,15.35
2023-08-03T02:58:32.592Z,15.41
2023-08-03T02:59:32.599Z,15.30
2023-08-03T03:00:32.608Z,15.27
2023-08-03T03:01:32.643Z,15.30
2023-08-03T03:02:32.644Z,15.35
2023-08-03T03:03:32.648Z,15.30
2023-08-03T03:04:32.561Z,15.29
2023-08-03T03:05:32.534Z,15.30
2023-08-03T03:06:32.554Z,15.33
2023-08-03T03:07:32.486Z,15.32
2023-08-03T03:08:32.512Z,15.32
2023-08-03T03:09:32.531Z,15.37
2023-08-03T03:10:32.467Z,15.27
2023-08-03T03:11:32.456Z,15.30
2023-08-03T03:12:32.504Z,15.30
2023-08-03T03:13:32.474Z,15.29
2023-08-03T03:14:32.416Z,15.33
2023-08-03T03:15:32.455Z,15.36
2023-08-03T03:16:32.447Z,15.35
2023-08-03T03:17:32.456Z,15.30
2023-08-03T03:18:32.382Z,15.30
2023-08-03T03:19:32.410Z,15.27
2023-08-03T03:20:32.412Z,15.39
2023-08-03T03:21:32.329Z,15.33
2023-08-03T03:22:32.341Z,15.37
2023-08-03T03:23:32.380Z,15.41
2023-08-03T03:24:32.315Z,15.41
2023-08-03T03:25:32.288Z,15.33
2023-08-03T03:26:32.309Z,15.50
2023-08-03T03:27:32.310Z,15.52
2023-08-03T03:28:32.289Z,15.51
2023-08-03T03:29:32.257Z,15.39
2023-08-03T03:30:32.264Z,15.54
2023-08-03T03:31:32.256Z,15.47
2023-08-03T03:32:32.307Z,15.60
2023-08-03T03:33:32.226Z,15.62
2023-08-03T03:34:32.195Z,15.52
2023-08-03T03:35:32.178Z,15.55
2023-08-03T03:36:32.181Z,15.57
2023-08-03T03:37:32.186Z,15.52
2023-08-03T03:38:32.143Z,15.44
2023-08-03T03:39:32.163Z,15.41
2023-08-03T03:40:32.142Z,15.54
2023-08-03T03:41:32.120Z,15.37
2023-08-03T03:42:32.138Z,15.45
2023-08-03T03:43:32.117Z,15.37
2023-08-03T03:44:32.107Z,15.44
2023-08-03T03:45:32.070Z,15.52
2023-08-03T03:46:32.083Z,15.52
2023-08-03T03:47:32.138Z,15.55
2023-08-03T03:48:32.127Z,15.66
2023-08-03T03:49:32.085Z,15.72
2023-08-03T03:50:32.024Z,15.66
2023-08-03T03:51:31.982Z,15.69
2023-08-03T03:52:32.026Z,15.65
2023-08-03T03:53:31.998Z,15.62
2023-08-03T03:54:31.934Z,15.55
2023-08-03T03:55:31.968Z,15.67
2023-08-03T03:56:31.969Z,15.54
2023-08-03T03:57:31.925Z,15.50
2023-08-03T03:58:31.917Z,15.52
2023-08-03T03:59:32.018Z,15.57
2023-08-03T04:00:31.924Z,15.62
2023-08-03T04:01:31.955Z,15.59
2023-08-03T04:02:31.909Z,15.54
2023-08-03T04:03:31.902Z,15.52
2023-08-03T04:04:32.872Z,15.55
2023-08-03T04:05:32.887Z,15.55
2023-08-03T04:06:31.870Z,15.54
2023-08-03T04:07:31.832Z,15.54
2023-08-03T04:08:31.813Z,15.55
2023-08-03T04:09:31.814Z,15.48
2023-08-03T04:10:31.809Z,15.55
2023-08-03T04:11:31.786Z,15.48
2023-08-03T04:12:31.764Z,15.55
2023-08-03T04:13:31.733Z,15.50
2023-08-03T04:14:31.741Z,15.50
2023-08-03T04:15:31.794Z,15.57
2023-08-03T04:16:31.724Z,15.47
2023-08-03T04:17:31.761Z,15.45
2023-08-03T04:18:31.705Z,15.52
2023-08-03T04:19:31.652Z,15.51
2023-08-03T04:20:31.738Z,15.52
2023-08-03T04:21:32.680Z,15.52
2023-08-03T04:22:31.681Z,15.47
2023-08-03T04:23:31.621Z,15.55
2023-08-03T04:24:31.662Z,15.52
2023-08-03T04:25:31.627Z,15.57
2023-08-03T04:26:31.599Z,15.57
2023-08-03T04:27:31.600Z,15.67
2023-08-03T04:28:31.580Z,15.66
2023-08-03T04:29:31.631Z,15.66
2023-08-03T04:30:31.580Z,15.70
2023-08-03T04:31:31.572Z,15.90
2023-08-03T04:32:31.544Z,15.88
2023-08-03T04:33:31.552Z,15.84
2023-08-03T04:34:31.504Z,15.96
2023-08-03T04:35:31.557Z,15.88
2023-08-03T04:36:31.493Z,15.85
2023-08-03T04:37:31.470Z,15.87
2023-08-03T04:38:31.451Z,15.66
2023-08-03T04:39:31.474Z,15.73
2023-08-03T04:40:31.470Z,15.65
2023-08-03T04:41:31.402Z,15.60
2023-08-03T04:42:31.468Z,15.73
2023-08-03T04:43:31.404Z,15.75
2023-08-03T04:44:31.380Z,15.75
2023-08-03T04:45:31.395Z,15.73
2023-08-03T04:46:31.409Z,15.65
2023-08-03T04:47:31.362Z,15.66
2023-08-03T04:48:31.383Z,15.62
2023-08-03T04:49:31.348Z,15.52
2023-08-03T04:50:31.335Z,15.50
2023-08-03T04:51:31.319Z,15.57
2023-08-03T04:52:31.312Z,15.54
2023-08-03T04:53:31.282Z,15.50
2023-08-03T04:54:31.271Z,15.55
2023-08-03T04:55:31.307Z,15.48
2023-08-03T04:56:31.250Z,15.47
2023-08-03T04:57:32.223Z,15.50
2023-08-03T04:58:31.257Z,15.44
2023-08-03T04:59:31.229Z,15.47
2023-08-03T05:00:31.229Z,15.54
2023-08-03T05:01:31.253Z,15.51
2023-08-03T05:02:31.196Z,15.48
2023-08-03T05:03:31.193Z,15.55
2023-08-03T05:04:31.169Z,15.48
2023-08-03T05:05:31.134Z,15.44
2023-08-03T05:06:31.185Z,15.54
2023-08-03T05:07:31.125Z,15.43
2023-08-03T05:08:31.120Z,15.54
2023-08-03T05:09:31.124Z,15.52
2023-08-03T05:10:31.122Z,15.51
2023-08-03T05:11:31.065Z,15.44
2023-08-03T05:12:31.065Z,15.44
2023-08-03T05:13:31.094Z,15.51
2023-08-03T05:14:31.074Z,15.36
2023-08-03T05:15:31.044Z,15.45
2023-08-03T05:16:31.046Z,15.50
2023-08-03T05:17:31.089Z,15.37
2023-08-03T05:18:31.000Z,15.37
2023-08-03T05:19:31.003Z,15.39
2023-08-03T05:20:31.002Z,15.41
2023-08-03T05:21:30.940Z,15.39
2023-08-03T05:22:30.975Z,15.47
2023-08-03T05:23:30.938Z,15.50
2023-08-03T05:24:30.941Z,15.43
2023-08-03T05:25:30.933Z,15.45
2023-08-03T05:26:30.911Z,15.43
2023-08-03T05:27:30.923Z,15.41
2023-08-03T05:28:30.873Z,15.44
2023-08-03T05:29:30.889Z,15.33
2023-08-03T05:30:30.901Z,15.41
2023-08-03T05:31:30.835Z,15.41
2023-08-03T05:32:30.899Z,15.43
2023-08-03T05:33:30.894Z,15.39
2023-08-03T05:34:30.828Z,15.36
2023-08-03T05:35:30.798Z,15.39
2023-08-03T05:36:30.847Z,15.48
2023-08-03T05:37:30.792Z,15.39
2023-08-03T05:38:30.749Z,15.48
2023-08-03T05:39:30.788Z,15.41
2023-08-03T05:40:30.772Z,15.48
2023-08-03T05:41:30.721Z,15.36
2023-08-03T05:42:30.716Z,15.51
2023-08-03T05:43:30.726Z,15.41
2023-08-03T05:44:30.712Z,15.39
2023-08-03T05:45:30.696Z,15.45
2023-08-03T05:46:30.745Z,15.43
2023-08-03T05:47:30.710Z,15.44
2023-08-03T05:48:30.662Z,15.51
2023-08-03T05:49:30.654Z,15.57
2023-08-03T05:50:30.650Z,15.63
2023-08-03T05:51:30.605Z,15.67
2023-08-03T05:52:30.617Z,15.75
2023-08-03T05:53:30.620Z,15.87
2023-08-03T05:54:30.560Z,15.85
2023-08-03T05:55:30.581Z,16.02
2023-08-03T05:56:30.566Z,16.12
2023-08-03T05:57:30.534Z,16.18
2023-08-03T05:58:30.561Z,16.21
2023-08-03T05:59:30.539Z,16.16
2023-08-03T06:00:30.569Z,16.18
2023-08-03T06:01:30.537Z,16.17
2023-08-03T06:02:30.555Z,16.26
2023-08-03T06:03:30.522Z,16.37
2023-08-03T06:04:30.463Z,16.31
2023-08-03T06:05:30.476Z,16.32
2023-08-03T06:06:30.501Z,16.32
2023-08-03T06:07:30.449Z,16.32
2023-08-03T06:08:30.425Z,16.25
2023-08-03T06:09:31.637Z,16.32
2023-08-03T06:10:31.381Z,16.46
2023-08-03T06:11:30.412Z,16.37
2023-08-03T06:12:30.430Z,16.47
2023-08-03T06:13:30.356Z,16.37
2023-08-03T06:14:30.351Z,16.44
2023-08-03T06:15:30.361Z,16.62
2023-08-03T06:16:30.438Z,16.62
2023-08-03T06:17:30.370Z,16.59
2023-08-03T06:18:30.329Z,16.65
2023-08-03T06:19:30.308Z,16.62
2023-08-03T06:20:30.308Z,16.51
2023-08-03T06:21:30.315Z,16.65
2023-08-03T06:22:30.388Z,16.61
2023-08-03T06:23:30.258Z,16.64
2023-08-03T06:24:30.263Z,16.66
2023-08-03T06:25:30.255Z,16.76
2023-08-03T06:26:30.221Z,16.77
2023-08-03T06:27:30.223Z,16.62
2023-08-03T06:28:30.205Z,16.68
2023-08-03T06:29:30.190Z,16.69
2023-08-03T06:30:30.181Z,16.77
2023-08-03T06:31:30.258Z,16.74
2023-08-03T06:32:30.217Z,16.76
2023-08-03T06:33:30.129Z,16.80
2023-08-03T06:34:30.138Z,16.83
2023-08-03T06:35:30.162Z,16.86
2023-08-03T06:36:30.148Z,16.84
2023-08-03T06:37:30.082Z,16.94
2023-08-03T06:38:30.097Z,16.99
2023-08-03T06:39:30.135Z,16.98
2023-08-03T06:40:31.070Z,16.99
2023-08-03T06:41:30.071Z,16.89
2023-08-03T06:42:30.077Z,16.92
2023-08-03T06:43:30.037Z,16.73
2023-08-03T06:44:30.041Z,16.76
2023-08-03T06:45:30.065Z,16.76
2023-08-03T06:46:30.140Z,16.76
2023-08-03T06:47:29.998Z,16.82
2023-08-03T06:48:29.981Z,16.77
2023-08-03T06:49:29.997Z,16.84
2023-08-03T06:50:29.945Z,16.84
2023-08-03T06:51:30.021Z,16.95
2023-08-03T06:52:29.947Z,16.92
2023-08-03T06:53:29.943Z,16.83
2023-08-03T06:54:29.943Z,17.01
2023-08-03T06:55:29.922Z,17.05
2023-08-03T06:56:29.905Z,17.10
2023-08-03T06:57:29.897Z,16.99
2023-08-03T06:58:29.905Z,17.10
2023-08-03T06:59:29.857Z,17.12
2023-08-03T07:00:29.860Z,17.20
2023-08-03T07:01:29.889Z,17.24
2023-08-03T07:02:29.864Z,17.39
2023-08-03T07:03:29.870Z,17.20
2023-08-03T07:04:29.812Z,17.31
2023-08-03T07:05:29.842Z,17.28
2023-08-03T07:06:29.858Z,17.35
2023-08-03T07:07:29.751Z,17.31
2023-08-03T07:08:29.760Z,17.28
2023-08-03T07:09:29.768Z,17.17
2023-08-03T07:10:29.808Z,17.24
2023-08-03T07:11:29.718Z,17.30
2023-08-03T07:12:29.730Z,17.27
2023-08-03T07:13:29.731Z,17.31
2023-08-03T07:14:29.692Z,17.28
2023-08-03T07:15:29.708Z,17.30
2023-08-03T07:16:29.741Z,17.31
2023-08-03T07:17:29.691Z,17.32
2023-08-03T07:18:29.729Z,17.42
2023-08-03T07:19:29.654Z,17.37
2023-08-03T07:20:29.631Z,17.39
2023-08-03T07:21:29.620Z,17.42
2023-08-03T07:22:29.630Z,17.38
2023-08-03T07:23:29.594Z,17.35
2023-08-03T07:24:29.599Z,17.38
2023-08-03T07:25:29.597Z,17.46
2023-08-03T07:26:29.566Z,17.50
2023-08-03T07:27:29.555Z,17.47
2023-08-03T07:28:29.591Z,17.47
2023-08-03T07:29:29.553Z,17.57
2023-08-03T07:30:32.612Z,17.65
2023-08-03T07:31:30.585Z,17.73
2023-08-03T07:32:29.530Z,17.71
2023-08-03T07:33:29.472Z,17.72
2023-08-03T07:34:29.496Z,17.84
2023-08-03T07:35:29.485Z,18.02
2023-08-03T07:36:29.481Z,18.00
2023-08-03T07:37:29.477Z,18.05
2023-08-03T07:38:29.436Z,17.97
2023-08-03T07:39:29.483Z,18.03
2023-08-03T07:40:29.431Z,17.90
2023-08-03T07:41:29.388Z,17.95
2023-08-03T07:42:29.473Z,18.15
2023-08-03T07:43:29.398Z,18.15
2023-08-03T07:44:49.225Z,18.24
2023-08-03T07:46:30.432Z,18.26
2023-08-03T07:47:29.376Z,18.15
2023-08-03T07:49:01.267Z,18.24
2023-08-03T07:49:29.337Z,18.11
2023-08-03T07:50:29.351Z,18.19
2023-08-03T07:51:29.387Z,18.13
2023-08-03T07:52:29.319Z,18.06
2023-08-03T07:53:29.289Z,18.11
2023-08-03T07:54:29.289Z,17.98
2023-08-03T07:55:29.279Z,17.97
2023-08-03T07:56:29.691Z,18.11
2023-08-03T07:57:30.313Z,18.00
2023-08-03T07:58:29.246Z,18.30
2023-08-03T07:59:29.258Z,18.43
2023-08-03T08:00:29.267Z,18.24
2023-08-03T08:01:29.362Z,18.48
2023-08-03T08:02:29.221Z,18.63
2023-08-03T08:03:29.265Z,18.61
2023-08-03T08:04:29.190Z,18.64
2023-08-03T08:05:29.183Z,18.57
2023-08-03T08:06:29.264Z,18.74
2023-08-03T08:07:29.157Z,18.73
2023-08-03T08:08:29.149Z,18.74
2023-08-03T08:09:29.127Z,18.63
2023-08-03T08:10:29.110Z,18.64
2023-08-03T08:11:29.231Z,18.58
2023-08-03T08:12:29.089Z,18.61
2023-08-03T08:13:29.084Z,18.63
2023-08-03T08:14:29.066Z,18.67
2023-08-03T08:15:29.102Z,18.66
2023-08-03T08:16:29.077Z,18.68
2023-08-03T08:17:29.071Z,18.71
2023-08-03T08:18:30.466Z,18.55
2023-08-03T08:19:29.026Z,18.49
2023-08-03T08:20:29.025Z,18.43
2023-08-03T08:21:29.011Z,18.53
2023-08-03T08:22:29.273Z,18.41
2023-08-03T08:23:29.023Z,18.39
2023-08-03T08:24:29.050Z,18.31
2023-08-03T08:25:29.038Z,18.48
2023-08-03T08:26:28.996Z,18.63
2023-08-03T08:27:29.209Z,18.51
2023-08-03T08:28:29.138Z,18.39
2023-08-03T08:29:28.931Z,18.34
2023-08-03T08:30:28.925Z,18.30
2023-08-03T08:31:32.781Z,18.30
2023-08-03T08:32:29.953Z,18.26
2023-08-03T08:33:28.916Z,18.13
2023-08-03T08:34:31.195Z,18.16
2023-08-03T08:35:28.841Z,18.27
2023-08-03T08:36:28.853Z,18.23
2023-08-03T08:37:28.889Z,18.19
2023-08-03T08:38:28.822Z,18.19
2023-08-03T08:39:28.831Z,18.16
2023-08-03T08:40:28.811Z,18.27
2023-08-03T08:41:29.693Z,18.18
2023-08-03T08:42:28.777Z,18.12
2023-08-03T08:43:28.786Z,18.13
2023-08-03T08:44:28.732Z,17.95
2023-08-03T08:45:28.738Z,17.97
2023-08-03T08:46:28.830Z,18.05
2023-08-03T08:47:28.859Z,18.21
2023-08-03T08:50:32.190Z,18.37
2023-08-03T08:52:29.719Z,18.61
2023-08-03T08:53:28.745Z,18.57
2023-08-03T08:55:17.484Z,18.53
2023-08-03T08:59:32.863Z,18.48
2023-08-03T08:59:33.488Z,18.53
2023-08-03T09:00:29.589Z,18.64
2023-08-03T09:01:28.602Z,18.68
2023-08-03T09:02:28.592Z,18.63
2023-08-03T09:03:28.853Z,18.64
2023-08-03T09:04:32.489Z,18.76
2023-08-03T09:06:29.527Z,18.79
2023-08-03T09:07:28.513Z,18.64
2023-08-03T09:08:28.470Z,18.53
2023-08-03T09:09:28.478Z,18.64
2023-08-03T09:10:28.507Z,18.58
2023-08-03T09:11:28.551Z,18.66
2023-08-03T09:12:28.466Z,18.64
2023-08-03T09:13:28.513Z,18.71
2023-08-03T09:14:28.451Z,18.76
2023-08-03T09:15:28.413Z,18.76
2023-08-03T09:16:28.418Z,18.70
2023-08-03T09:17:28.487Z,18.67
2023-08-03T09:18:28.468Z,18.78
2023-08-03T09:19:28.354Z,18.81
2023-08-03T09:24:35.220Z,18.94
2023-08-03T09:25:40.312Z,18.98
2023-08-03T09:29:29.258Z,18.89
2023-08-03T09:30:36.739Z,18.96
2023-08-03T09:31:30.484Z,18.97
2023-08-03T09:32:29.337Z,19.07
2023-08-03T09:36:31.945Z,18.92
2023-08-03T09:38:29.191Z,18.88
2023-08-03T09:39:31.374Z,19.01
2023-08-03T09:40:29.114Z,18.96
2023-08-03T09:41:28.109Z,19.07
2023-08-03T09:44:29.072Z,18.96
2023-08-03T09:46:29.153Z,19.15
2023-08-03T09:47:29.929Z,19.05
2023-08-03T09:48:29.090Z,19.09
2023-08-03T09:49:28.042Z,19.07
2023-08-03T09:50:28.105Z,19.16
2023-08-03T09:51:28.002Z,19.05
2023-08-03T09:53:29.013Z,19.05
2023-08-03T09:54:27.994Z,18.98
2023-08-03T09:55:27.974Z,19.00
2023-08-03T09:56:28.026Z,19.07
2023-08-03T09:57:27.944Z,19.22
2023-08-03T09:58:27.922Z,19.15
2023-08-03T09:59:27.978Z,19.22
2023-08-03T10:00:27.955Z,19.35
2023-08-03T10:01:27.914Z,19.34
2023-08-03T10:02:27.936Z,19.34
2023-08-03T10:03:27.928Z,19.48
2023-08-03T10:04:27.887Z,19.44
2023-08-03T10:05:27.886Z,19.45
2023-08-03T10:06:27.886Z,19.35
2023-08-03T10:07:27.817Z,19.27
2023-08-03T10:08:27.805Z,19.39
2023-08-03T10:09:27.825Z,19.34
2023-08-03T10:10:27.857Z,19.39
2023-08-03T10:11:27.824Z,19.45
2023-08-03T10:12:27.772Z,19.66
2023-08-03T10:13:27.788Z,19.72
2023-08-03T10:14:27.760Z,19.78
2023-08-03T10:15:27.810Z,19.90
2023-08-03T10:16:27.791Z,19.94
2023-08-03T10:17:27.764Z,19.79
2023-08-03T10:18:49.484Z,19.90
2023-08-03T10:19:29.752Z,20.00
2023-08-03T10:20:27.689Z,20.08
2023-08-03T10:21:27.756Z,20.02
2023-08-03T10:22:27.664Z,20.04
2023-08-03T10:23:27.680Z,19.99
2023-08-03T10:24:27.669Z,19.89
2023-08-03T10:25:27.630Z,19.60
2023-08-03T10:26:27.632Z,19.47
2023-08-03T10:27:27.649Z,19.45
2023-08-03T10:28:27.619Z,19.52
2023-08-03T10:29:27.590Z,19.52
2023-08-03T10:30:27.636Z,19.35
2023-08-03T10:31:27.603Z,19.30
2023-08-03T10:32:27.616Z,19.35
2023-08-03T10:33:27.579Z,19.20
2023-08-03T10:34:27.557Z,19.16
2023-08-03T10:35:27.518Z,19.15
2023-08-03T10:36:27.684Z,19.05
2023-08-03T10:37:27.532Z,19.04
2023-08-03T10:38:27.527Z,19.12
2023-08-03T10:39:27.501Z,19.26
2023-08-03T10:40:27.518Z,19.12
2023-08-03T10:41:27.487Z,19.20
2023-08-03T10:42:27.513Z,19.19
2023-08-03T10:43:27.457Z,19.17
2023-08-03T10:44:27.487Z,19.22
2023-08-03T10:45:27.583Z,19.19
2023-08-03T10:48:05.541Z,19.27
2023-08-03T10:49:06.554Z,19.20
2023-08-03T10:50:06.419Z,19.30
2023-08-03T10:51:06.392Z,19.37
2023-08-03T10:52:06.375Z,19.35
2023-08-03T10:53:06.367Z,19.37
2023-08-03T10:54:06.374Z,19.29
2023-08-03T10:55:06.360Z,19.56
2023-08-03T10:56:06.438Z,19.52
2023-08-03T10:57:06.384Z,19.67
2023-08-03T10:58:06.328Z,19.75
2023-08-03T10:59:06.330Z,19.57
2023-08-03T11:00:06.275Z,19.89
2023-08-03T11:01:38.545Z,20.00
2023-08-03T11:02:06.443Z,19.87
2023-08-03T11:03:06.396Z,19.94
2023-08-03T11:04:07.409Z,19.94
2023-08-03T11:05:08.639Z,19.99
2023-08-03T11:06:07.215Z,19.90
2023-08-03T11:07:06.276Z,19.96
2023-08-03T11:08:06.262Z,19.92
2023-08-03T11:09:06.202Z,19.75
2023-08-03T11:10:06.184Z,19.81
2023-08-03T11:11:06.231Z,19.79
2023-08-03T11:12:06.194Z,19.84
2023-08-03T11:13:06.147Z,19.89
2023-08-03T11:14:06.178Z,19.96
2023-08-03T11:15:06.169Z,19.79
2023-08-03T11:16:06.136Z,19.82
2023-08-03T11:17:06.126Z,19.85
2023-08-03T11:18:06.185Z,19.72
2023-08-03T11:19:06.100Z,19.74
2023-08-03T11:20:06.177Z,19.59
2023-08-03T11:21:06.088Z,19.67
2023-08-03T11:22:06.138Z,19.64
2023-08-03T11:23:06.155Z,19.77
2023-08-03T11:24:06.057Z,19.74
2023-08-03T11:25:06.032Z,19.89
2023-08-03T11:26:06.040Z,19.94
2023-08-03T11:27:06.040Z,19.84
2023-08-03T11:28:06.045Z,20.04
2023-08-03T11:29:05.989Z,20.12
2023-08-03T11:30:05.983Z,20.12
2023-08-03T11:31:06.027Z,20.03
2023-08-03T11:32:06.025Z,20.03
2023-08-03T11:33:07.050Z,20.02
2023-08-03T11:34:05.992Z,20.00
2023-08-03T11:35:05.990Z,20.07
2023-08-03T11:36:05.939Z,19.97
2023-08-03T11:37:05.945Z,19.94
2023-08-03T11:38:05.914Z,19.94
2023-08-03T11:39:05.884Z,19.94
2023-08-03T11:40:05.894Z,19.97
2023-08-03T11:41:07.103Z,19.87
2023-08-03T11:42:06.851Z,19.92
2023-08-03T11:43:05.887Z,19.94
2023-08-03T11:44:05.888Z,20.10
2023-08-03T11:45:05.831Z,20.04
2023-08-03T11:46:05.919Z,20.07
2023-08-03T11:47:05.851Z,20.00
2023-08-03T11:48:05.832Z,19.93
2023-08-03T11:49:05.791Z,19.90
2023-08-03T11:50:05.848Z,19.85
2023-08-03T11:51:05.783Z,19.92
2023-08-03T11:52:05.769Z,19.77
2023-08-03T11:53:18.729Z,19.78
2023-08-03T11:54:07.734Z,19.77
2023-08-03T11:55:05.722Z,19.75
2023-08-03T11:56:05.766Z,19.71
2023-08-03T11:57:05.766Z,19.75
2023-08-03T11:58:05.688Z,19.82
2023-08-03T11:59:05.767Z,19.96
2023-08-03T12:00:05.682Z,19.99
2023-08-03T12:01:06.106Z,19.96
2023-08-03T12:02:05.774Z,19.92
2023-08-03T12:03:05.734Z,19.79
2023-08-03T12:04:14.380Z,19.64
2023-08-03T12:05:16.403Z,19.57
2023-08-03T12:06:10.173Z,19.55
2023-08-03T12:08:07.134Z,19.60
2023-08-03T12:09:06.635Z,19.47
2023-08-03T12:10:05.620Z,19.52
2023-08-03T12:11:05.644Z,19.44
2023-08-03T12:12:05.618Z,19.41
2023-08-03T12:13:05.541Z,19.38
2023-08-03T12:14:05.540Z,19.32
2023-08-03T12:15:05.570Z,19.32
2023-08-03T12:16:05.486Z,19.45
2023-08-03T12:17:05.677Z,19.19
2023-08-03T12:18:05.535Z,19.09
2023-08-03T12:19:05.548Z,19.12
2023-08-03T12:20:05.517Z,19.01
2023-08-03T12:21:05.449Z,18.92
2023-08-03T12:22:05.538Z,18.82
2023-08-03T12:23:05.424Z,18.81
2023-08-03T12:24:05.873Z,18.89
2023-08-03T12:25:05.466Z,18.85
2023-08-03T12:26:05.465Z,18.98
2023-08-03T12:27:10.064Z,18.96
2023-08-03T12:28:06.423Z,18.82
2023-08-03T12:29:09.057Z,18.76
2023-08-03T12:30:06.410Z,18.88
2023-08-03T12:31:05.395Z,18.85
2023-08-03T12:32:05.317Z,18.96
2023-08-03T12:33:05.392Z,18.98
2023-08-03T12:34:05.410Z,18.82
2023-08-03T12:35:05.323Z,18.88
2023-08-03T12:36:05.306Z,18.91
2023-08-03T12:37:05.337Z,18.85
2023-08-03T12:39:05.979Z,18.88
2023-08-03T12:40:05.297Z,18.86
2023-08-03T12:41:05.287Z,18.85
2023-08-03T12:42:05.220Z,18.88
2023-08-03T12:43:05.243Z,18.96
2023-08-03T12:44:06.240Z,18.97
2023-08-03T12:45:05.290Z,18.85
2023-08-03T12:46:05.234Z,18.82
2023-08-03T12:47:08.980Z,18.91
2023-08-03T12:48:16.672Z,18.83
2023-08-03T12:49:07.223Z,18.74
2023-08-03T12:50:05.275Z,18.71
2023-08-03T12:51:05.127Z,18.67
2023-08-03T12:52:05.127Z,18.79
2023-08-03T12:53:05.185Z,18.67
2023-08-03T12:54:05.135Z,18.82
2023-08-03T12:55:05.094Z,18.78
2023-08-03T12:56:06.073Z,18.74
2023-08-03T12:57:05.117Z,18.66
2023-08-03T12:58:05.064Z,18.51
2023-08-03T12:59:05.122Z,18.43
2023-08-03T13:00:05.063Z,18.36
2023-08-03T13:01:05.071Z,18.33
2023-08-03T13:02:05.054Z,18.08
2023-08-03T13:03:05.103Z,18.18
2023-08-03T13:04:05.018Z,18.13
2023-08-03T13:05:05.124Z,17.95
2023-08-03T13:06:05.020Z,17.82
2023-08-03T13:07:05.043Z,17.79
2023-08-03T13:08:06.067Z,17.60
2023-08-03T13:09:04.970Z,17.52
2023-08-03T13:10:04.978Z,17.44
2023-08-03T13:11:04.938Z,17.37
2023-08-03T13:12:04.940Z,17.44
2023-08-03T13:13:04.891Z,17.23
2023-08-03T13:14:05.963Z,17.31
2023-08-03T13:15:04.888Z,17.34
2023-08-03T13:16:04.879Z,17.52
2023-08-03T13:17:04.923Z,17.44
2023-08-03T13:18:05.057Z,17.87
2023-08-03T13:19:04.903Z,17.82